createdAt,value
2018-03-04T00:02:08.627Z,70.63
2018-03-04T00:04:35.917Z,71.23
2018-03-04T00:07:03.194Z,72.67
2018-03-04T00:09:30.472Z,63.40
2018-03-04T00:11:57.780Z,69.07
2018-03-04T00:14:25.043Z,70.03
2018-03-04T00:16:52.317Z,67.43
2018-03-04T00:19:19.608Z,64.33
2018-03-04T00:21:46.883Z,62.90
2018-03-04T00:24:14.190Z,66.57
2018-03-04T00:26:41.458Z,65.23
2018-03-04T00:29:08.737Z,64.70
2018-03-04T00:31:36.020Z,69.63
2018-03-04T00:34:03.301Z,67.40
2018-03-04T00:36:30.573Z,69.33
2018-03-04T00:38:57.871Z,69.50
2018-03-04T00:41:25.148Z,64.20
2018-03-04T00:43:52.440Z,71.23
2018-03-04T00:46:19.711Z,71.90
2018-03-04T00:48:46.990Z,74.83
2018-03-04T00:51:14.279Z,79.03
2018-03-04T00:53:41.590Z,68.97
2018-03-04T00:56:08.857Z,68.63
2018-03-04T00:58:36.164Z,74.13
2018-03-04T01:01:03.424Z,78.03
2018-03-04T01:03:30.692Z,73.77
2018-03-04T01:05:58.007Z,68.90
2018-03-04T01:08:25.272Z,77.63
2018-03-04T01:10:52.576Z,74.20
2018-03-04T01:13:19.853Z,77.30
2018-03-04T01:15:47.145Z,64.23
2018-03-04T01:18:14.423Z,83.30
2018-03-04T01:20:41.708Z,72.77
2018-03-04T01:23:08.984Z,76.40
2018-03-04T01:25:36.294Z,71.53
2018-03-04T01:28:03.567Z,80.67
2018-03-04T01:30:30.868Z,91.07
2018-03-04T01:32:58.124Z,87.57
2018-03-04T01:35:25.417Z,93.97
2018-03-04T01:37:52.689Z,71.47
2018-03-04T01:40:19.956Z,82.47
2018-03-04T01:42:47.251Z,75.07
2018-03-04T01:45:14.520Z,80.40
2018-03-04T01:47:41.797Z,75.50
2018-03-04T01:50:09.089Z,71.23
2018-03-04T01:52:36.364Z,71.03
2018-03-04T01:55:03.635Z,72.30
2018-03-04T01:57:30.929Z,73.20
2018-03-04T01:59:58.198Z,84.30
2018-03-04T02:02:25.473Z,83.40
2018-03-04T02:04:52.774Z,94.63
2018-03-04T02:07:20.049Z,87.40
2018-03-04T02:09:47.352Z,91.57
2018-03-04T02:12:14.616Z,74.50
2018-03-04T02:14:41.923Z,102.80
2018-03-04T02:17:09.189Z,78.77
2018-03-04T02:19:36.464Z,83.47
2018-03-04T02:22:03.760Z,77.77
2018-03-04T02:24:31.032Z,85.43
2018-03-04T02:26:58.328Z,85.50
2018-03-04T02:29:25.617Z,87.97
2018-03-04T02:31:52.910Z,77.60
2018-03-04T02:34:20.190Z,75.13
2018-03-04T02:36:47.483Z,83.23
2018-03-04T02:39:14.744Z,77.33
2018-03-04T02:41:42.032Z,75.77
2018-03-04T02:44:09.327Z,80.27
2018-03-04T02:46:36.599Z,77.80
2018-03-04T02:49:03.880Z,84.27
2018-03-04T02:51:31.182Z,86.10
2018-03-04T02:53:58.448Z,83.50
2018-03-04T02:56:25.748Z,87.93
2018-03-04T02:58:53.231Z,77.80
2018-03-04T03:01:20.550Z,79.50
2018-03-04T03:03:47.906Z,83.37
2018-03-04T03:06:15.201Z,85.90
2018-03-04T03:08:42.500Z,85.13
2018-03-04T03:11:09.764Z,82.67
2018-03-04T03:13:37.060Z,76.70
2018-03-04T03:16:04.338Z,75.97
2018-03-04T03:18:31.637Z,79.47
2018-03-04T03:20:58.911Z,78.17
2018-03-04T03:23:26.201Z,78.33
2018-03-04T03:25:53.490Z,65.37
2018-03-04T03:28:20.765Z,65.10
2018-03-04T03:30:48.062Z,68.97
2018-03-04T03:33:15.437Z,63.90
2018-03-04T03:35:42.809Z,56.67
2018-03-04T03:38:10.086Z,54.00
2018-03-04T03:40:37.375Z,58.20
2018-03-04T03:43:04.648Z,59.50
2018-03-04T03:45:31.945Z,60.93
2018-03-04T03:47:59.211Z,75.43
2018-03-04T03:50:26.514Z,72.43
2018-03-04T03:52:53.789Z,76.73
2018-03-04T03:55:21.062Z,72.13
2018-03-04T03:57:48.356Z,72.80
2018-03-04T04:00:15.629Z,70.70
2018-03-04T04:02:42.897Z,71.77
2018-03-04T04:05:10.193Z,70.33
2018-03-04T04:07:37.461Z,76.87
2018-03-04T04:10:04.764Z,78.60
2018-03-04T04:12:32.032Z,70.23
2018-03-04T04:14:59.329Z,66.63
2018-03-04T04:17:26.605Z,74.90
2018-03-04T04:19:53.906Z,85.43
2018-03-04T04:22:21.185Z,75.70
2018-03-04T04:24:48.482Z,74.50
2018-03-04T04:27:15.748Z,68.13
2018-03-04T04:29:43.053Z,63.67
2018-03-04T04:32:10.321Z,66.47
2018-03-04T04:34:37.588Z,73.90
2018-03-04T04:37:04.890Z,62.87
2018-03-04T04:39:32.168Z,53.00
2018-03-04T04:41:59.459Z,47.90
2018-03-04T04:44:26.787Z,51.63
2018-03-04T04:46:54.039Z,50.40
2018-03-04T04:49:21.301Z,58.53
2018-03-04T04:51:48.891Z,67.93
2018-03-04T04:54:16.164Z,60.10
2018-03-04T04:56:43.433Z,60.20
2018-03-04T04:59:10.734Z,62.40
2018-03-04T05:01:38.024Z,66.17
2018-03-04T05:04:05.306Z,66.43
2018-03-04T05:06:32.601Z,64.67
2018-03-04T05:08:59.901Z,67.17
2018-03-04T05:11:27.201Z,62.43
2018-03-04T05:13:54.478Z,64.80
2018-03-04T05:16:21.746Z,63.13
2018-03-04T05:18:49.044Z,57.17
2018-03-04T05:21:16.326Z,56.60
2018-03-04T05:23:43.617Z,59.33
2018-03-04T05:26:10.908Z,62.10
2018-03-04T05:28:38.192Z,60.20
2018-03-04T05:31:05.469Z,67.00
2018-03-04T05:33:32.761Z,68.20
2018-03-04T05:36:00.035Z,69.23
2018-03-04T05:38:27.320Z,70.20
2018-03-04T05:40:54.600Z,66.97
2018-03-04T05:43:21.900Z,70.00
2018-03-04T05:45:49.282Z,61.40
2018-03-04T05:48:16.574Z,97.53
2018-03-04T05:50:43.844Z,76.97
2018-03-04T05:53:11.118Z,65.20
2018-03-04T05:55:38.492Z,82.13
2018-03-04T05:58:05.789Z,67.30
2018-03-04T06:00:33.062Z,66.00
2018-03-04T06:03:00.340Z,58.27
2018-03-04T06:05:27.637Z,59.37
2018-03-04T06:07:54.904Z,58.93
2018-03-04T06:10:22.205Z,62.10
2018-03-04T06:12:49.485Z,54.13
2018-03-04T06:15:16.753Z,58.20
2018-03-04T06:17:44.057Z,60.43
2018-03-04T06:20:11.348Z,62.20
2018-03-04T06:22:38.628Z,62.13
2018-03-04T06:25:05.892Z,62.63
2018-03-04T06:27:33.198Z,67.40
2018-03-04T06:30:00.656Z,76.07
2018-03-04T06:32:27.928Z,62.47
2018-03-04T06:34:55.200Z,60.43
2018-03-04T06:37:22.521Z,53.87
2018-03-04T06:39:49.780Z,53.60
2018-03-04T06:42:17.050Z,47.67
2018-03-04T06:44:44.348Z,40.07
2018-03-04T06:47:11.641Z,38.27
2018-03-04T06:49:38.935Z,37.90
2018-03-04T06:52:06.193Z,39.30
2018-03-04T06:54:33.458Z,34.17
2018-03-04T06:57:00.746Z,48.87
2018-03-04T06:59:28.020Z,61.07
2018-03-04T07:01:55.321Z,65.90
2018-03-04T07:04:22.591Z,62.33
2018-03-04T07:06:50.993Z,70.87
2018-03-04T07:09:18.283Z,68.37
2018-03-04T07:11:45.553Z,68.20
2018-03-04T07:14:12.820Z,57.73
2018-03-04T07:16:40.208Z,74.00
2018-03-04T07:19:07.487Z,73.53
2018-03-04T07:21:34.897Z,100.93
2018-03-04T07:24:02.175Z,109.30
2018-03-04T07:26:29.436Z,70.40
2018-03-04T07:28:56.741Z,67.43
2018-03-04T07:31:24.009Z,64.33
2018-03-04T07:33:51.286Z,62.63
2018-03-04T07:36:18.581Z,58.97
2018-03-04T07:38:45.848Z,59.40
2018-03-04T07:41:13.140Z,37.47
2018-03-04T07:43:40.409Z,28.17
2018-03-04T07:46:07.707Z,31.63
2018-03-04T07:48:34.976Z,40.73
2018-03-04T07:51:02.242Z,38.53
2018-03-04T07:53:29.533Z,54.20
2018-03-04T07:55:56.805Z,51.37
2018-03-04T07:58:24.104Z,41.23
2018-03-04T08:00:51.391Z,45.17
2018-03-04T08:03:18.661Z,46.50
2018-03-04T08:05:45.961Z,52.60
2018-03-04T08:08:13.265Z,47.10
2018-03-04T08:10:40.536Z,43.17
2018-03-04T08:13:07.842Z,35.10
2018-03-04T08:15:35.100Z,31.63
2018-03-04T08:18:02.397Z,28.10
2018-03-04T08:20:29.661Z,30.03
2018-03-04T08:22:56.926Z,28.50
2018-03-04T08:25:36.132Z,31.83
2018-03-04T08:28:09.173Z,37.80
2018-03-04T08:30:36.464Z,28.87
2018-03-04T08:33:03.726Z,30.93
2018-03-04T08:35:30.990Z,28.40
2018-03-04T08:37:58.282Z,30.27
2018-03-04T08:40:25.568Z,28.63
2018-03-04T08:42:52.857Z,26.00
2018-03-04T08:45:20.127Z,27.47
2018-03-04T08:47:47.394Z,28.87
2018-03-04T08:50:14.679Z,27.73
2018-03-04T08:52:41.945Z,30.00
2018-03-04T08:55:09.213Z,31.87
2018-03-04T08:57:36.499Z,35.93
2018-03-04T09:00:03.785Z,35.57
2018-03-04T09:02:31.049Z,45.93
2018-03-04T09:04:58.314Z,43.53
2018-03-04T09:07:25.613Z,41.60
2018-03-04T09:09:52.881Z,36.77
2018-03-04T09:12:20.146Z,32.47
2018-03-04T09:14:47.452Z,28.00
2018-03-04T09:17:14.706Z,45.37
2018-03-04T09:19:42.035Z,27.43
2018-03-04T09:22:09.261Z,24.50
2018-03-04T09:24:36.552Z,23.87
2018-03-04T09:27:03.822Z,23.73
2018-03-04T09:29:31.089Z,23.73
2018-03-04T09:31:58.385Z,25.03
2018-03-04T09:34:25.654Z,26.20
2018-03-04T09:36:52.914Z,30.90
2018-03-04T09:39:20.196Z,37.90
2018-03-04T09:41:47.464Z,38.23
2018-03-04T09:44:14.732Z,31.30
2018-03-04T09:46:42.024Z,32.83
2018-03-04T09:49:09.292Z,36.37
2018-03-04T09:51:36.580Z,27.97
2018-03-04T09:54:03.852Z,33.20
2018-03-04T09:56:31.144Z,38.53
2018-03-04T09:58:58.441Z,38.47
2018-03-04T10:01:25.709Z,42.90
2018-03-04T10:03:53.002Z,43.23
2018-03-04T10:06:20.273Z,45.30
2018-03-04T10:08:47.561Z,39.00
2018-03-04T10:11:14.828Z,38.30
2018-03-04T10:13:42.092Z,40.43
2018-03-04T10:16:09.385Z,37.17
2018-03-04T10:18:36.653Z,30.83
2018-03-04T10:21:03.924Z,35.97
2018-03-04T10:23:31.216Z,30.80
2018-03-04T10:25:58.476Z,32.67
2018-03-04T10:28:25.757Z,34.13
2018-03-04T10:30:53.033Z,29.03
2018-03-04T10:33:20.299Z,27.33
2018-03-04T10:35:47.585Z,24.00
2018-03-04T10:38:14.854Z,26.73
2018-03-04T10:40:42.157Z,25.80
2018-03-04T10:43:09.421Z,27.40
2018-03-04T10:45:36.723Z,29.13
2018-03-04T10:48:03.991Z,35.83
2018-03-04T10:50:31.279Z,30.23
2018-03-04T10:52:58.535Z,34.90
2018-03-04T10:55:25.819Z,36.20
2018-03-04T10:57:53.112Z,37.37
2018-03-04T11:00:24.185Z,32.17
2018-03-04T11:02:51.496Z,34.47
2018-03-04T11:05:18.760Z,34.37
2018-03-04T11:07:46.020Z,37.53
2018-03-04T11:10:13.308Z,34.80
2018-03-04T11:12:40.572Z,39.83
2018-03-04T11:15:07.868Z,29.53
2018-03-04T11:17:35.133Z,26.20
2018-03-04T11:20:02.425Z,23.67
2018-03-04T11:22:29.690Z,23.07
2018-03-04T11:24:56.965Z,22.67
2018-03-04T11:27:24.232Z,21.07
2018-03-04T11:29:51.524Z,19.33
2018-03-04T11:32:18.796Z,19.00
2018-03-04T11:34:46.053Z,23.07
2018-03-04T11:37:13.353Z,26.33
2018-03-04T11:39:40.620Z,25.87
2018-03-04T11:42:07.916Z,21.50
2018-03-04T11:44:35.180Z,26.03
2018-03-04T11:47:02.469Z,27.07
2018-03-04T11:49:29.742Z,28.57
2018-03-04T11:51:57.006Z,24.23
2018-03-04T11:54:24.292Z,23.70
2018-03-04T11:56:51.552Z,25.77
2018-03-04T11:59:18.836Z,24.93
2018-03-04T12:01:46.100Z,22.80
2018-03-04T12:04:13.389Z,19.77
2018-03-04T12:06:40.660Z,21.30
2018-03-04T12:09:07.948Z,16.53
2018-03-04T12:11:35.224Z,12.67
2018-03-04T12:14:02.504Z,14.93
2018-03-04T12:16:29.769Z,13.80
2018-03-04T12:18:57.033Z,14.87
2018-03-04T12:21:24.326Z,14.13
2018-03-04T12:23:51.603Z,13.17
2018-03-04T12:26:18.857Z,14.83
2018-03-04T12:28:46.145Z,16.40
2018-03-04T12:31:13.432Z,16.40
2018-03-04T12:33:40.692Z,16.60
2018-03-04T12:36:07.979Z,17.43
2018-03-04T12:38:35.256Z,19.67
2018-03-04T12:41:02.565Z,20.53
2018-03-04T12:43:29.828Z,23.80
2018-03-04T12:45:57.100Z,19.87
2018-03-04T12:48:24.388Z,21.23
2018-03-04T12:50:51.661Z,23.07
2018-03-04T12:53:18.920Z,23.53
2018-03-04T12:55:46.212Z,26.33
2018-03-04T12:58:13.476Z,24.63
2018-03-04T13:00:40.769Z,26.10
2018-03-04T13:03:08.036Z,25.70
2018-03-04T13:05:35.324Z,26.13
2018-03-04T13:08:02.667Z,26.20
2018-03-04T13:10:29.888Z,26.60
2018-03-04T13:12:57.167Z,28.97
2018-03-04T13:15:24.453Z,26.47
2018-03-04T13:17:51.720Z,28.50
2018-03-04T13:20:19.015Z,30.70
2018-03-04T13:22:46.279Z,29.60
2018-03-04T13:25:13.574Z,36.70
2018-03-04T13:27:40.864Z,41.80
2018-03-04T13:30:08.168Z,42.10
2018-03-04T13:32:35.456Z,39.50
2018-03-04T13:35:02.755Z,38.97
2018-03-04T13:37:30.022Z,38.83
2018-03-04T13:39:57.315Z,40.90
2018-03-04T13:42:24.575Z,44.47
2018-03-04T13:44:51.857Z,44.90
2018-03-04T13:47:19.152Z,45.60
2018-03-04T13:49:46.416Z,45.07
2018-03-04T13:52:13.709Z,43.87
2018-03-04T13:54:40.973Z,46.90
2018-03-04T13:57:08.270Z,46.60
2018-03-04T13:59:35.536Z,44.03
2018-03-04T14:02:02.829Z,46.53
2018-03-04T14:04:30.116Z,46.10
2018-03-04T14:06:57.382Z,44.27
2018-03-04T14:09:24.652Z,43.83
2018-03-04T14:11:51.951Z,42.80
2018-03-04T14:14:19.213Z,44.03
2018-03-04T14:16:46.507Z,44.90
2018-03-04T14:19:13.773Z,42.20
2018-03-04T14:21:41.065Z,43.57
2018-03-04T14:24:08.683Z,42.90
2018-03-04T14:26:35.938Z,39.73
2018-03-04T14:29:03.225Z,40.50
2018-03-04T14:31:30.513Z,41.77
2018-03-04T14:33:57.787Z,41.03
2018-03-04T14:36:25.068Z,37.63
2018-03-04T14:38:52.340Z,38.40
2018-03-04T14:41:19.638Z,38.53
2018-03-04T14:43:46.896Z,37.53
2018-03-04T14:46:14.173Z,38.57
2018-03-04T14:48:41.458Z,38.47
2018-03-04T14:51:08.720Z,33.80
2018-03-04T14:53:36.017Z,37.30
2018-03-04T14:56:03.280Z,35.80
2018-03-04T14:58:30.572Z,34.33
2018-03-04T15:00:57.870Z,35.87
2018-03-04T15:03:25.133Z,36.83
2018-03-04T15:05:52.424Z,34.50
2018-03-04T15:08:19.720Z,38.70
2018-03-04T15:10:46.989Z,34.43
2018-03-04T15:13:14.285Z,32.87
2018-03-04T15:15:41.544Z,42.80
2018-03-04T15:18:08.836Z,32.60
2018-03-04T15:20:36.104Z,39.80
2018-03-04T15:23:03.401Z,34.40
2018-03-04T15:25:30.671Z,38.03
2018-03-04T15:27:57.986Z,32.20
2018-03-04T15:30:25.253Z,34.07
2018-03-04T15:32:52.550Z,53.13
2018-03-04T15:35:19.849Z,65.33
2018-03-04T15:37:47.117Z,69.00
2018-03-04T15:40:14.414Z,66.90
2018-03-04T15:42:41.735Z,61.80
2018-03-04T15:45:09.025Z,54.97
2018-03-04T15:47:36.351Z,41.67
2018-03-04T15:50:03.609Z,39.30
2018-03-04T15:52:30.902Z,40.97
2018-03-04T15:54:58.170Z,38.00
2018-03-04T15:57:25.431Z,40.37
2018-03-04T15:59:52.727Z,40.70
2018-03-04T16:02:20.015Z,37.10
2018-03-04T16:04:47.320Z,38.63
2018-03-04T16:07:14.579Z,38.30
2018-03-04T16:09:41.851Z,36.57
2018-03-04T16:12:09.132Z,36.90
2018-03-04T16:14:36.401Z,38.07
2018-03-04T16:17:03.689Z,37.03
2018-03-04T16:19:30.952Z,41.40
2018-03-04T16:21:58.249Z,40.27
2018-03-04T16:24:25.572Z,37.80
2018-03-04T16:26:52.812Z,32.53
2018-03-04T16:29:20.109Z,39.30
2018-03-04T16:31:47.399Z,39.37
2018-03-04T16:34:14.663Z,40.23
2018-03-04T16:36:41.955Z,39.53
2018-03-04T16:39:09.224Z,38.23
2018-03-04T16:41:36.480Z,40.07
2018-03-04T16:44:03.771Z,39.37
2018-03-04T16:46:31.030Z,39.57
2018-03-04T16:48:58.301Z,39.97
2018-03-04T16:51:25.591Z,42.63
2018-03-04T16:53:52.872Z,40.30
2018-03-04T16:56:20.271Z,40.73
2018-03-04T16:58:47.562Z,42.77
2018-03-04T17:01:14.828Z,39.30
2018-03-04T17:03:43.141Z,45.50
2018-03-04T17:06:10.437Z,42.90
2018-03-04T17:08:37.706Z,47.37
2018-03-04T17:11:04.970Z,45.27
2018-03-04T17:13:32.263Z,43.23
2018-03-04T17:15:59.622Z,43.17
2018-03-04T17:18:26.917Z,47.53
2018-03-04T17:20:54.181Z,44.43
2018-03-04T17:23:21.484Z,45.43
2018-03-04T17:25:49.047Z,45.50
2018-03-04T17:28:16.301Z,44.57
2018-03-04T17:30:43.572Z,44.03
2018-03-04T17:33:10.867Z,43.50
2018-03-04T17:35:38.127Z,44.73
2018-03-04T17:38:05.417Z,40.53
2018-03-04T17:40:32.684Z,42.50
2018-03-04T17:42:59.982Z,40.73
2018-03-04T17:45:27.249Z,42.00
2018-03-04T17:47:54.541Z,42.20
2018-03-04T17:50:21.837Z,41.50
2018-03-04T17:52:49.104Z,42.40
2018-03-04T17:55:16.400Z,39.60
2018-03-04T17:57:43.670Z,39.63
2018-03-04T18:00:10.966Z,40.70
2018-03-04T18:02:38.236Z,42.00
2018-03-04T18:05:05.498Z,39.37
2018-03-04T18:07:32.796Z,44.05
2018-03-04T18:10:00.053Z,38.40
2018-03-04T18:12:27.357Z,40.37
2018-03-04T18:14:54.621Z,42.47
2018-03-04T18:17:21.904Z,39.13
2018-03-04T18:19:49.169Z,38.30
2018-03-04T18:22:16.543Z,36.33
2018-03-04T18:24:43.808Z,38.57
2018-03-04T18:27:11.094Z,39.10
2018-03-04T18:29:38.396Z,36.27
2018-03-04T18:32:05.962Z,34.47
2018-03-04T18:34:33.327Z,35.63
2018-03-04T18:37:00.580Z,34.40
2018-03-04T18:39:28.029Z,35.63
2018-03-04T18:41:55.270Z,33.43
2018-03-04T18:44:22.564Z,31.83
2018-03-04T18:46:49.824Z,34.13
2018-03-04T18:49:17.109Z,32.50
2018-03-04T18:51:44.377Z,34.73
2018-03-04T18:54:11.656Z,33.50
2018-03-04T18:56:38.961Z,31.00
2018-03-04T18:59:06.231Z,33.30
2018-03-04T19:01:33.521Z,31.20
2018-03-04T19:04:00.818Z,31.27
2018-03-04T19:06:28.086Z,31.30
2018-03-04T19:08:55.385Z,32.63
2018-03-04T19:11:22.648Z,31.20
2018-03-04T19:13:49.908Z,32.03
2018-03-04T19:16:17.223Z,31.70
2018-03-04T19:18:44.527Z,30.63
2018-03-04T19:21:12.043Z,30.57
2018-03-04T19:23:39.472Z,31.20
2018-03-04T19:26:06.736Z,33.33
2018-03-04T19:28:33.999Z,29.87
2018-03-04T19:31:01.346Z,31.10
2018-03-04T19:33:28.644Z,34.37
2018-03-04T19:35:55.908Z,32.00
2018-03-04T19:38:23.200Z,30.37
2018-03-04T19:40:50.464Z,30.73
2018-03-04T19:43:17.754Z,31.40
2018-03-04T19:45:45.032Z,28.30
2018-03-04T19:48:12.324Z,28.93
2018-03-04T19:50:39.616Z,27.10
2018-03-04T19:53:06.892Z,26.30
2018-03-04T19:55:34.186Z,28.77
2018-03-04T19:58:01.482Z,28.07
2018-03-04T20:00:28.750Z,25.83
2018-03-04T20:02:56.030Z,27.97
2018-03-04T20:05:23.324Z,26.87
2018-03-04T20:07:50.590Z,26.10
2018-03-04T20:10:17.848Z,26.10
2018-03-04T20:12:45.137Z,26.93
2018-03-04T20:15:12.400Z,23.70
2018-03-04T20:17:39.696Z,26.07
2018-03-04T20:20:06.964Z,25.43
2018-03-04T20:22:34.257Z,25.03
2018-03-04T20:25:01.535Z,25.27
2018-03-04T20:27:28.838Z,27.00
2018-03-04T20:29:56.108Z,28.63
2018-03-04T20:32:23.402Z,27.27
2018-03-04T20:34:50.664Z,27.17
2018-03-04T20:37:17.937Z,25.30
2018-03-04T20:39:45.224Z,25.47
2018-03-04T20:42:12.528Z,24.20
2018-03-04T20:44:39.821Z,25.00
2018-03-04T20:47:07.088Z,27.40
2018-03-04T20:49:34.354Z,24.13
2018-03-04T20:52:01.659Z,24.20
2018-03-04T20:54:28.920Z,21.40
2018-03-04T20:56:56.184Z,24.37
2018-03-04T20:59:23.487Z,21.10
2018-03-04T21:01:50.744Z,21.13
2018-03-04T21:04:18.045Z,18.37
2018-03-04T21:06:45.309Z,20.70
2018-03-04T21:09:12.569Z,23.83
2018-03-04T21:11:39.884Z,20.10
2018-03-04T21:14:07.148Z,19.10
2018-03-04T21:16:34.425Z,18.17
2018-03-04T21:19:01.692Z,19.63
2018-03-04T21:21:28.984Z,19.40
2018-03-04T21:23:56.250Z,18.10
2018-03-04T21:26:23.545Z,19.67
2018-03-04T21:28:50.800Z,19.57
2018-03-04T21:31:18.092Z,18.50
2018-03-04T21:33:45.359Z,21.00
2018-03-04T21:36:12.658Z,20.00
2018-03-04T21:38:39.912Z,18.93
2018-03-04T21:41:07.201Z,19.70
2018-03-04T21:43:34.475Z,19.50
2018-03-04T21:46:01.727Z,19.83
2018-03-04T21:48:29.021Z,20.37
2018-03-04T21:50:56.288Z,20.23
2018-03-04T21:53:23.581Z,23.00
2018-03-04T21:55:50.857Z,21.37
2018-03-04T21:58:18.137Z,23.57
2018-03-04T22:00:45.413Z,22.40
2018-03-04T22:03:12.701Z,25.60
2018-03-04T22:05:40.030Z,26.10
2018-03-04T22:08:07.240Z,28.17
2018-03-04T22:10:34.536Z,27.93
2018-03-04T22:13:01.807Z,27.33
2018-03-04T22:15:29.086Z,29.50
2018-03-04T22:17:56.374Z,30.57
2018-03-04T22:20:23.637Z,29.87
2018-03-04T22:22:50.923Z,29.23
2018-03-04T22:25:18.198Z,28.90
2018-03-04T22:27:45.475Z,30.03
2018-03-04T22:30:12.753Z,34.73
2018-03-04T22:32:40.041Z,32.80
2018-03-04T22:35:07.309Z,28.80
2018-03-04T22:37:34.609Z,29.70
2018-03-04T22:40:01.881Z,30.30
2018-03-04T22:42:29.154Z,28.97
2018-03-04T22:44:56.436Z,28.23
2018-03-04T22:47:23.700Z,33.47
2018-03-04T22:49:50.967Z,32.27
2018-03-04T22:52:18.260Z,30.60
2018-03-04T22:54:45.565Z,30.80
2018-03-04T22:57:12.831Z,28.80
2018-03-04T22:59:40.092Z,27.03
2018-03-04T23:02:07.397Z,30.17
2018-03-04T23:04:34.655Z,28.47
2018-03-04T23:07:01.916Z,25.30
2018-03-04T23:09:29.206Z,24.43
2018-03-04T23:11:56.477Z,25.57
2018-03-04T23:14:23.756Z,23.97
2018-03-04T23:16:51.021Z,21.97
2018-03-04T23:19:18.318Z,20.87
2018-03-04T23:21:45.605Z,21.73
2018-03-04T23:24:12.873Z,23.73
2018-03-04T23:26:40.164Z,21.17
2018-03-04T23:29:07.432Z,18.40
2018-03-04T23:31:34.728Z,18.20
2018-03-04T23:34:01.993Z,17.80
2018-03-04T23:36:29.290Z,19.27
2018-03-04T23:38:56.552Z,15.37
2018-03-04T23:41:23.845Z,15.23
2018-03-04T23:43:51.099Z,21.73
2018-03-04T23:46:18.396Z,15.83
2018-03-04T23:48:45.655Z,16.70
2018-03-04T23:51:12.936Z,15.80
2018-03-04T23:53:40.228Z,15.10
2018-03-04T23:56:07.490Z,16.50
2018-03-04T23:58:34.762Z,15.07
